Airfield :







YOU CAN JOIN US ON...

 
LOGIN :

Register | Disclaimer

   EN    FR    IT 

 









Legend :    VFR   Marginal VFR   IFR   Intensive IFR   Very Intensive IFR
Visi :
Ceiling :
>= 8 km
>= 3000ft
5 to 8 km
1000 to 3000 ft
1500m to 5 km
500 to 1000 ft
800 to 1500m
200 to 500 ft
< 800m
< 200 ft
Symbols :   Thunderstorms  Fog  Heavy snow  Heavy precipitations  Wind > 20 kt







- Airport Elevation : 333 ft


KWVL - Waterville Robert Lafleur

CURRENT METAR :
  • 201656Z AUTO VRB04KT 10SM CLR 25/11 A3004 RMK AO2 SLP195 T02500106

EXPIRED METARs :
  • 201556Z AUTO 34006KT 10SM CLR 26/11 A3005 RMK AO2 SLP199 T02560111
  • 201456Z AUTO 35005KT 10SM CLR 24/12 A3005 RMK AO2 SLP201 T02440117 51006

TAF N/A
No reported NOTAMs for that airfield.



MET'MAP, your aeronautical weather chart ! - Copyright ORBIFLY December 2007 - Disclaimer

ORBIFLY MET'MAP TEAM :

Programming & Development : Alexandra Zaïnal
Concept & Development : Baudouin d'Aumeries
Co-Development & Prog : Marc-Olivier Méhu
Technical & hardware support : Manuel Goepfert

Contact : metmap@orbifly.com




SOURCES & CREDITS :

   NOAA